Aérodrome :
LOGIN :

S'inscrire | Disclaimer

   EN    FR    IT 

 










Légende :    VFR   VFR Marginal   IFR   IFR Intensif   IFR Très Intensif
Visi : 
Plafond : 
>= 8 km
>= 3000ft
5 à 8 km
1000 à 3000 ft
1500m à 5 km
500 à 1000 ft
800 à 1500m
200 à 500 ft
< 800m
< 200 ft
Symboles :   Orages  Brouillard  Fortes neiges  Fortes précipitations  Vent > 20 kt
SIGMETs :   Divers  Orages  Givrage  Turbulence  Onde Orograph.  Cendres Volcan.







- Altitude de l'aérodrome : 12 ft
- Code IATA : NCE
- Voir les cartes d'approche


LFMN - Nice

DERNIER METAR :
  • 202330Z 02004KT CAVOK 21/15 Q1014 NOSIG

METARs EXPIRÉS :
  • 202300Z 03004KT CAVOK 21/16 Q1014 NOSIG
  • 202230Z VRB02KT CAVOK 21/16 Q1014 NOSIG
  • 202200Z 09002KT CAVOK 22/18 Q1014 NOSIG
  • 202130Z 19002KT CAVOK 21/18 Q1014 NOSIG
  • 202100Z 21002KT CAVOK 21/19 Q1014 NOSIG

TAF TAF LFMN
Valide du 20 à 21h jusqu'au 22 à 03h UTC


202000Z 2021/2203 22005KT CAVOK
BECMG 2022/2024 33010KT
PROB40
TEMPO 2100/2107 BKN010
BECMG 2107/2109 09010KT
BECMG 2120/2123 33008KT
ATIS : +33 4 93 17 21 16
Pas de NOTAMs connus pour ce terrain.



MET'MAP, la Météo Aéronautique d'un coup d'oeil ! - Copyright ORBIFLY Décembre 2007 - Disclaimer

ORBIFLY MET'MAP TEAM :

Programmation & Développement : Alexandra Zaïnal
Conception & Développement : Baudouin d'Aumeries
Co-Programmation & Développement : Marc-Olivier Méhu
Soutien technique & logistique : Manuel Goepfert

Contact : metmap@orbifly.com




SOURCES & CREDITS :

   NOAA